Time;durP1;ratioP1;P1;durP2;ratioP2;P2;SDS_P1;SDS_P2;PMS_P1;PMS_P2;Temp;Humidity;BMP_temperature;BMP_pressure;BME280_temperature;BME280_humidity;BME280_pressure;Samples;Min_cycle;Max_cycle;Signal;HPM_P1;HPM_P2
2022/04/05 00:02:15;;;;;;;38.22;19.48;;;7.60;99.90;;;;;;5268849;28;20023;-75
2022/04/05 00:04:46;;;;;;;33.08;18.95;;;7.40;99.90;;;;;;5268876;28;20024;-76
2022/04/05 00:07:17;;;;;;;34.20;19.35;;;7.60;99.90;;;;;;5268845;28;20032;-76
2022/04/05 00:09:48;;;;;;;35.90;19.50;;;7.60;99.90;;;;;;5268878;28;20016;-75
2022/04/05 00:12:20;;;;;;;36.58;20.92;;;7.50;99.90;;;;;;5268639;28;20024;-76
2022/04/05 00:14:51;;;;;;;35.25;20.75;;;7.40;99.90;;;;;;5268514;28;20483;-76
2022/04/05 00:17:21;;;;;;;42.95;22.75;;;7.50;99.90;;;;;;5268767;28;20039;-76
2022/04/05 00:19:52;;;;;;;36.88;22.45;;;7.70;99.90;;;;;;5268798;28;20024;-76
2022/04/05 00:22:23;;;;;;;36.92;22.38;;;7.80;99.90;;;;;;5268977;28;20039;-74
2022/04/05 00:24:54;;;;;;;39.25;23.58;;;7.70;99.90;;;;;;5268572;28;20024;-74
2022/04/05 00:27:25;;;;;;;39.42;23.30;;;7.50;99.90;;;;;;5268561;28;20391;-76
2022/04/05 00:29:56;;;;;;;45.08;24.17;;;7.70;99.90;;;;;;5268728;28;20020;-76
2022/04/05 00:32:27;;;;;;;41.38;24.55;;;7.70;99.90;;;;;;5268643;28;20669;-76
2022/04/05 00:34:58;;;;;;;51.33;24.20;;;7.40;99.90;;;;;;5268553;28;20047;-75
2022/04/05 00:37:29;;;;;;;44.42;24.17;;;7.50;99.90;;;;;;5268569;28;20032;-74
2022/04/05 00:39:59;;;;;;;41.42;23.65;;;7.80;99.90;;;;;;5268466;28;20185;-75
2022/04/05 00:42:30;;;;;;;39.92;22.20;;;7.70;99.90;;;;;;5270515;28;20020;-75
2022/04/05 00:45:01;;;;;;;39.97;24.85;;;7.60;99.90;;;;;;5272491;28;20370;-76
2022/04/05 00:47:32;;;;;;;41.97;24.25;;;7.40;99.90;;;;;;5272516;28;20111;-76
2022/04/05 00:50:05;;;;;;;43.03;24.98;;;7.50;99.90;;;;;;5272572;28;20016;-76
2022/04/05 00:52:36;;;;;;;43.95;25.60;;;7.60;99.90;;;;;;5272457;28;20180;-76
2022/04/05 00:55:07;;;;;;;45.70;26.55;;;7.30;99.90;;;;;;5272520;28;20122;-74
2022/04/05 00:57:39;;;;;;;41.65;25.52;;;7.30;99.90;;;;;;5272334;28;20039;-73
2022/04/05 01:00:11;;;;;;;42.63;25.00;;;7.30;99.90;;;;;;5272326;28;20043;-75
2022/04/05 01:02:43;;;;;;;54.55;25.67;;;7.20;99.90;;;;;;5272167;28;20111;-74
2022/04/05 01:05:17;;;;;;;50.28;26.73;;;7.30;99.90;;;;;;5272202;28;20028;-73
2022/04/05 01:07:50;;;;;;;47.90;25.35;;;7.10;99.90;;;;;;5272046;28;20039;-75
2022/04/05 01:10:21;;;;;;;51.10;26.15;;;7.30;99.90;;;;;;5272232;28;20020;-74
2022/04/05 01:12:52;;;;;;;51.15;27.85;;;7.10;99.90;;;;;;5271884;28;20121;-74
2022/04/05 01:15:23;;;;;;;46.65;25.27;;;7.20;99.90;;;;;;5271723;28;20139;-74
2022/04/05 01:17:55;;;;;;;51.13;27.15;;;7.20;99.90;;;;;;5272079;28;20038;-74
2022/04/05 01:20:26;;;;;;;50.33;26.70;;;7.30;99.90;;;;;;5271929;28;20161;-74
2022/04/05 01:22:57;;;;;;;44.75;24.48;;;7.40;99.90;;;;;;5271895;28;20540;-76
2022/04/05 01:25:28;;;;;;;47.95;26.58;;;7.50;99.90;;;;;;5271637;28;20043;-75
2022/04/05 01:27:58;;;;;;;50.35;27.65;;;7.50;99.90;;;;;;5271862;28;20027;-76
2022/04/05 01:30:29;;;;;;;45.70;25.65;;;7.40;99.90;;;;;;5271685;28;20034;-74
2022/04/05 01:33:00;;;;;;;50.45;26.38;;;7.40;99.90;;;;;;5271682;28;20027;-76
2022/04/05 01:35:31;;;;;;;50.42;26.85;;;7.50;99.90;;;;;;5271692;28;20480;-76
2022/04/05 01:38:03;;;;;;;55.58;28.10;;;7.40;99.90;;;;;;5271628;28;20030;-75
2022/04/05 01:40:34;;;;;;;48.67;26.40;;;7.40;99.90;;;;;;5271635;28;20035;-76
2022/04/05 01:43:06;;;;;;;59.83;30.13;;;7.20;99.90;;;;;;5271371;28;20036;-76
2022/04/05 01:45:37;;;;;;;60.70;30.60;;;7.30;99.90;;;;;;5271147;28;20052;-76
2022/04/05 01:48:08;;;;;;;57.50;31.05;;;7.30;99.90;;;;;;5271489;28;20472;-73
2022/04/05 01:50:38;;;;;;;56.47;29.73;;;7.40;99.90;;;;;;5271404;28;20061;-76
2022/04/05 01:53:09;;;;;;;54.95;30.42;;;7.40;99.90;;;;;;5270726;28;20024;-76
2022/04/05 01:55:40;;;;;;;53.13;27.13;;;7.60;99.90;;;;;;5271251;28;20091;-76
2022/04/05 01:58:11;;;;;;;53.42;27.20;;;7.70;99.90;;;;;;5271264;28;20050;-76
2022/04/05 02:00:42;;;;;;;55.30;28.17;;;7.90;99.90;;;;;;5271192;28;20015;-73
2022/04/05 02:03:12;;;;;;;45.63;26.33;;;7.80;99.90;;;;;;5271146;28;20552;-76
2022/04/05 02:05:46;;;;;;;54.15;27.48;;;7.50;99.90;;;;;;5270847;28;20044;-75
2022/04/05 02:08:17;;;;;;;59.15;29.55;;;7.30;99.90;;;;;;5271026;28;20354;-76
2022/04/05 02:10:49;;;;;;;55.65;29.75;;;7.40;99.90;;;;;;5270952;28;20014;-73
2022/04/05 02:13:19;;;;;;;57.13;29.15;;;7.50;99.90;;;;;;5270612;28;20095;-73
2022/04/05 02:15:50;;;;;;;64.22;30.95;;;7.60;99.90;;;;;;5270624;28;20139;-77
2022/04/05 02:18:21;;;;;;;61.45;32.10;;;7.60;99.90;;;;;;5270842;28;20016;-77
2022/04/05 02:20:54;;;;;;;60.95;28.98;;;7.50;99.90;;;;;;5270832;28;20016;-76
2022/04/05 02:23:25;;;;;;;57.30;30.38;;;7.50;99.90;;;;;;5270729;28;20471;-76
2022/04/05 02:25:56;;;;;;;56.90;28.83;;;7.50;99.90;;;;;;5270387;28;20044;-75
2022/04/05 02:28:27;;;;;;;54.13;28.67;;;7.50;99.90;;;;;;5270561;28;20051;-76
2022/04/05 02:30:58;;;;;;;61.10;30.17;;;7.50;99.90;;;;;;5270590;28;20371;-74
2022/04/05 02:33:29;;;;;;;60.53;31.13;;;7.40;99.90;;;;;;5270419;28;20047;-74
2022/04/05 02:36:00;;;;;;;56.10;29.30;;;7.50;99.90;;;;;;5270543;28;20055;-77
2022/04/05 02:38:31;;;;;;;56.67;29.85;;;7.50;99.90;;;;;;5270412;28;20031;-76
2022/04/05 02:41:05;;;;;;;56.58;30.73;;;7.70;99.90;;;;;;5270411;28;20035;-77
2022/04/05 02:43:36;;;;;;;66.28;31.27;;;7.80;99.90;;;;;;5270137;28;20027;-76
2022/04/05 02:46:08;;;;;;;59.63;31.45;;;7.80;99.90;;;;;;5270109;28;20040;-75
2022/04/05 02:48:46;;;;;;;56.03;29.73;;;7.80;99.90;;;;;;5270238;28;20024;-76
2022/04/05 02:51:17;;;;;;;56.47;28.63;;;7.80;99.90;;;;;;5252163;28;20468;-75
2022/04/05 02:53:48;;;;;;;58.50;30.02;;;7.80;99.90;;;;;;5270032;28;20081;-72
2022/04/05 02:56:19;;;;;;;58.60;29.73;;;7.80;99.90;;;;;;5270041;28;20027;-73
2022/04/05 02:58:50;;;;;;;50.92;28.33;;;7.90;99.90;;;;;;5270021;28;20376;-76
2022/04/05 03:01:20;;;;;;;54.50;29.23;;;7.80;99.90;;;;;;5270081;28;20040;-76
2022/04/05 03:03:51;;;;;;;53.30;29.33;;;7.60;99.90;;;;;;5269852;28;20104;-76
2022/04/05 03:06:22;;;;;;;61.85;31.65;;;7.50;99.90;;;;;;5268742;28;20036;-74
2022/04/05 03:08:56;;;;;;;57.50;30.92;;;7.20;99.90;;;;;;5269805;28;20020;-73
2022/04/05 03:11:27;;;;;;;60.10;28.70;;;7.50;99.90;;;;;;5269740;28;20020;-76
2022/04/05 03:13:58;;;;;;;59.33;30.70;;;7.60;99.90;;;;;;5269351;28;20414;-74
2022/04/05 03:16:29;;;;;;;62.08;32.50;;;7.60;99.90;;;;;;5269883;28;20032;-73
2022/04/05 03:19:00;;;;;;;62.38;33.25;;;7.70;99.90;;;;;;5269595;28;20052;-73
2022/04/05 03:21:31;;;;;;;59.13;31.52;;;7.80;99.90;;;;;;5269567;28;20040;-75
2022/04/05 03:24:01;;;;;;;58.38;32.30;;;7.80;99.90;;;;;;5250884;28;20032;-77
2022/04/05 03:26:32;;;;;;;57.33;31.17;;;7.60;99.90;;;;;;5251000;28;20484;-77
2022/04/05 03:29:03;;;;;;;66.55;33.03;;;7.70;99.90;;;;;;5269498;28;20448;-76
2022/04/05 03:31:34;;;;;;;57.38;30.02;;;7.40;99.90;;;;;;5269382;28;20027;-76
2022/04/05 03:34:05;;;;;;;59.00;31.02;;;7.40;99.90;;;;;;5251082;28;20020;-76
2022/04/05 03:36:36;;;;;;;57.95;29.80;;;7.50;99.90;;;;;;5251084;28;20028;-76
2022/04/05 03:39:07;;;;;;;58.35;27.90;;;7.60;99.90;;;;;;5269328;28;20054;-76
2022/04/05 03:41:38;;;;;;;56.58;30.52;;;7.60;99.90;;;;;;5269243;28;20146;-77
2022/04/05 03:44:09;;;;;;;68.72;33.55;;;7.70;99.90;;;;;;5250455;28;20535;-76
2022/04/05 03:46:39;;;;;;;60.83;29.85;;;7.50;99.90;;;;;;5268954;28;20093;-76
2022/04/05 03:49:10;;;;;;;67.60;35.17;;;7.40;99.90;;;;;;5269172;28;20103;-73
2022/04/05 03:51:41;;;;;;;78.40;40.50;;;7.30;99.90;;;;;;5250916;28;20455;-75
2022/04/05 03:54:12;;;;;;;61.92;30.92;;;7.40;99.90;;;;;;5268980;28;20028;-76
2022/04/05 03:56:44;;;;;;;66.50;32.10;;;7.50;99.90;;;;;;5250963;28;20479;-73
2022/04/05 03:59:15;;;;;;;62.65;30.27;;;7.30;99.90;;;;;;5268976;28;20031;-76
2022/04/05 04:01:45;;;;;;;57.38;28.42;;;7.50;99.90;;;;;;5250799;28;20024;-74
2022/04/05 04:04:16;;;;;;;57.90;30.08;;;7.60;99.90;;;;;;5268917;28;20495;-76
2022/04/05 04:06:47;;;;;;;57.58;29.08;;;7.50;99.90;;;;;;5250495;28;20380;-77
2022/04/05 04:09:18;;;;;;;58.83;28.52;;;7.40;99.90;;;;;;5268839;28;20478;-76
2022/04/05 04:11:49;;;;;;;60.38;29.05;;;7.40;99.90;;;;;;5268878;28;20038;-76
2022/04/05 04:14:20;;;;;;;63.67;31.70;;;7.50;99.90;;;;;;5268241;28;20131;-74
2022/04/05 04:16:51;;;;;;;57.53;29.65;;;7.70;99.90;;;;;;5268597;28;20485;-73
2022/04/05 04:19:22;;;;;;;56.85;29.90;;;7.70;99.90;;;;;;5268771;28;20024;-77
2022/04/05 04:21:52;;;;;;;55.90;29.60;;;7.60;99.90;;;;;;5268740;28;20142;-75
2022/04/05 04:24:23;;;;;;;60.15;30.70;;;7.60;99.90;;;;;;5268705;28;20059;-74
2022/04/05 04:26:54;;;;;;;63.20;32.45;;;7.70;99.90;;;;;;5268382;28;20107;-74
2022/04/05 04:29:25;;;;;;;62.33;30.77;;;7.70;99.90;;;;;;5268624;28;20459;-75
2022/04/05 04:31:56;;;;;;;58.33;29.40;;;7.50;99.90;;;;;;5250447;28;20496;-76
2022/04/05 04:34:26;;;;;;;60.88;29.98;;;7.50;99.90;;;;;;5250500;28;20024;-76
2022/04/05 04:36:57;;;;;;;57.67;29.10;;;7.50;99.90;;;;;;5268609;28;20103;-76
2022/04/05 04:39:28;;;;;;;60.60;29.80;;;7.50;99.90;;;;;;5268569;28;20032;-77
2022/04/05 04:41:59;;;;;;;45.90;23.15;;;7.70;99.90;;;;;;5268425;28;20024;-76
2022/04/05 04:44:30;;;;;;;50.85;26.58;;;7.70;99.90;;;;;;5250293;28;20024;-77
2022/04/05 04:47:01;;;;;;;41.80;23.70;;;7.80;99.90;;;;;;5268340;28;20036;-77
2022/04/05 04:49:32;;;;;;;43.33;22.40;;;7.80;99.90;;;;;;5268058;28;20040;-77
2022/04/05 04:52:04;;;;;;;43.63;23.42;;;7.90;99.90;;;;;;5268372;28;20101;-78
2022/04/05 04:54:35;;;;;;;43.58;23.45;;;7.90;99.90;;;;;;5268550;28;20392;-77
2022/04/05 04:57:06;;;;;;;41.05;22.65;;;8.00;99.90;;;;;;5268378;28;20020;-74
2022/04/05 04:59:37;;;;;;;39.70;22.08;;;8.00;99.90;;;;;;5268338;28;20043;-74
2022/04/05 05:02:07;;;;;;;45.55;23.92;;;8.10;99.90;;;;;;5268253;28;20091;-78
2022/04/05 05:04:38;;;;;;;51.10;26.50;;;7.90;99.90;;;;;;5268170;28;20089;-75
2022/04/05 05:07:09;;;;;;;59.80;31.27;;;7.90;99.90;;;;;;5268237;28;20023;-78
2022/04/05 05:09:40;;;;;;;59.28;30.75;;;7.70;99.90;;;;;;5249692;28;20024;-74
2022/04/05 05:12:11;;;;;;;60.85;31.67;;;7.60;99.90;;;;;;5268127;28;20028;-78
2022/04/05 05:14:42;;;;;;;60.50;32.42;;;7.60;99.90;;;;;;5267507;28;20076;-79
2022/04/05 05:17:12;;;;;;;60.85;31.60;;;7.70;99.90;;;;;;5250004;28;20036;-79
2022/04/05 05:19:44;;;;;;;64.82;33.00;;;7.70;99.90;;;;;;5268220;28;20020;-79
2022/04/05 05:22:14;;;;;;;63.03;32.50;;;7.70;99.90;;;;;;5267916;28;20383;-74
2022/04/05 05:24:45;;;;;;;72.70;35.45;;;7.70;99.90;;;;;;5268092;28;20028;-78
2022/04/05 05:27:16;;;;;;;60.67;31.48;;;7.60;99.90;;;;;;5249878;28;20032;-79
2022/04/05 05:29:47;;;;;;;60.25;31.58;;;7.80;99.90;;;;;;5270430;28;20098;-74
2022/04/05 05:32:18;;;;;;;55.53;30.42;;;7.80;99.90;;;;;;5271766;28;20032;-75
2022/04/05 05:34:48;;;;;;;60.55;31.85;;;7.70;99.90;;;;;;5271690;28;20042;-75
2022/04/05 05:37:19;;;;;;;49.20;29.23;;;7.80;99.90;;;;;;5271239;28;20077;-74
2022/04/05 05:39:50;;;;;;;50.30;27.90;;;7.80;99.90;;;;;;5253504;28;20027;-74
2022/04/05 05:42:21;;;;;;;51.95;27.83;;;7.70;99.90;;;;;;5271452;28;20099;-74
2022/04/05 05:44:52;;;;;;;50.63;26.90;;;7.60;99.90;;;;;;5271389;28;20024;-78
2022/04/05 05:47:22;;;;;;;44.20;26.25;;;7.70;99.90;;;;;;5253200;28;20032;-78
2022/04/05 05:49:53;;;;;;;45.92;24.80;;;7.70;99.90;;;;;;5271479;28;20082;-78
2022/04/05 05:52:24;;;;;;;44.95;25.27;;;7.90;99.90;;;;;;5271291;28;20035;-78
2022/04/05 05:54:55;;;;;;;44.65;25.48;;;7.80;99.90;;;;;;5253193;28;20036;-78
2022/04/05 05:57:25;;;;;;;44.47;26.40;;;7.90;99.90;;;;;;5271271;28;20016;-74
2022/04/05 05:59:56;;;;;;;47.65;26.02;;;7.80;99.90;;;;;;5271217;28;20027;-78
2022/04/05 06:02:27;;;;;;;49.00;26.05;;;7.90;99.90;;;;;;5270996;28;20032;-74
2022/04/05 06:04:58;;;;;;;46.78;26.30;;;8.00;99.90;;;;;;5271057;28;20056;-74
2022/04/05 06:07:28;;;;;;;45.70;26.02;;;7.80;99.90;;;;;;5270612;28;20032;-79
2022/04/05 06:10:00;;;;;;;47.72;25.10;;;7.90;99.90;;;;;;5252848;28;20030;-79
2022/04/05 06:12:31;;;;;;;47.75;27.48;;;8.00;99.90;;;;;;5270903;28;20032;-74
2022/04/05 06:15:02;;;;;;;50.90;27.25;;;8.00;99.90;;;;;;5270636;28;20044;-74
2022/04/05 06:17:32;;;;;;;48.30;26.90;;;7.90;99.90;;;;;;5270879;28;20490;-74
2022/04/05 06:20:05;;;;;;;35.95;22.08;;;8.00;99.90;;;;;;5270395;28;20023;-79
2022/04/05 06:22:47;;;;;;;44.20;25.65;;;8.00;99.90;;;;;;5270769;28;20145;-74
2022/04/05 06:25:22;;;;;;;44.05;23.67;;;8.10;99.90;;;;;;5252506;28;20089;-74
2022/04/05 06:27:54;;;;;;;38.65;23.67;;;8.10;99.90;;;;;;5270557;28;20016;-75
2022/04/05 06:30:25;;;;;;;40.55;23.15;;;8.20;99.90;;;;;;5270602;28;20032;-78
2022/04/05 06:33:17;;;;;;;39.10;21.85;;;8.20;99.90;;;;;;5252355;28;20467;-74
2022/04/05 06:35:51;;;;;;;36.95;21.77;;;8.30;99.90;;;;;;5270550;28;20024;-74
2022/04/05 06:38:22;;;;;;;36.50;20.88;;;8.40;99.90;;;;;;5270479;28;20081;-79
2022/04/05 06:40:54;;;;;;;32.85;19.70;;;8.50;99.90;;;;;;5252086;28;20035;-75
2022/04/05 06:43:25;;;;;;;34.95;21.00;;;8.40;99.90;;;;;;5270082;28;20028;-75
2022/04/05 06:45:56;;;;;;;33.83;19.33;;;8.30;99.90;;;;;;5270119;28;20047;-74
2022/04/05 06:48:27;;;;;;;33.22;19.75;;;8.20;99.90;;;;;;5252175;28;20020;-74
2022/04/05 06:50:57;;;;;;;35.45;19.98;;;8.30;99.90;;;;;;5270199;28;20024;-74
2022/04/05 06:53:30;;;;;;;31.65;18.85;;;8.40;99.90;;;;;;5270130;28;20097;-79
2022/04/05 06:56:01;;;;;;;36.45;20.10;;;8.60;99.90;;;;;;5270122;28;20055;-74
2022/04/05 06:58:32;;;;;;;34.05;19.40;;;8.70;99.90;;;;;;5270053;28;20048;-79
2022/04/05 07:01:03;;;;;;;37.92;20.98;;;8.70;99.90;;;;;;5270096;28;20099;-79
2022/04/05 07:03:34;;;;;;;36.33;19.30;;;8.80;99.90;;;;;;5269847;28;20454;-77
2022/04/05 07:06:05;;;;;;;30.50;18.08;;;8.70;99.90;;;;;;5251146;28;20116;-74
2022/04/05 07:08:36;;;;;;;29.15;18.10;;;8.60;99.90;;;;;;5269869;28;20099;-75
2022/04/05 07:11:07;;;;;;;28.85;17.67;;;8.60;99.90;;;;;;5251688;28;20024;-79
2022/04/05 07:13:39;;;;;;;30.60;18.60;;;8.60;99.90;;;;;;5269657;28;20380;-74
2022/04/05 07:16:10;;;;;;;31.20;18.75;;;8.70;99.90;;;;;;5269553;28;20054;-75
2022/04/05 07:18:40;;;;;;;29.75;17.42;;;8.70;99.90;;;;;;5269771;28;20024;-79
2022/04/05 07:21:11;;;;;;;25.80;16.48;;;8.90;99.90;;;;;;5269218;28;20024;-79
2022/04/05 07:23:44;;;;;;;30.30;18.25;;;8.90;99.90;;;;;;5269559;28;20476;-74
2022/04/05 07:26:15;;;;;;;32.22;18.33;;;9.00;99.90;;;;;;5251136;28;20089;-75
2022/04/05 07:28:47;;;;;;;27.85;14.98;;;9.00;99.90;;;;;;5269567;28;20095;-75
2022/04/05 07:31:18;;;;;;;35.88;21.25;;;9.00;99.90;;;;;;5269449;28;20032;-75
2022/04/05 07:33:48;;;;;;;35.17;21.35;;;9.00;99.90;;;;;;5251263;28;20035;-79
2022/04/05 07:36:19;;;;;;;32.58;21.95;;;9.00;99.90;;;;;;5269424;28;20022;-75
2022/04/05 07:38:52;;;;;;;35.78;19.23;;;9.10;99.90;;;;;;5269314;28;20422;-74
2022/04/05 07:41:22;;;;;;;28.35;18.05;;;9.10;99.90;;;;;;5251000;28;20067;-75
2022/04/05 07:43:53;;;;;;;30.73;17.83;;;9.20;99.90;;;;;;5250853;28;20060;-74
2022/04/05 07:46:24;;;;;;;31.00;16.27;;;9.10;99.90;;;;;;5268952;28;20051;-78
2022/04/05 07:48:55;;;;;;;27.17;17.42;;;9.20;99.90;;;;;;5250620;28;20475;-74
2022/04/05 07:51:27;;;;;;;34.35;19.58;;;9.20;99.90;;;;;;5268550;28;20024;-78
2022/04/05 07:53:58;;;;;;;31.90;20.15;;;9.40;99.90;;;;;;5268992;28;20020;-74
2022/04/05 07:56:29;;;;;;;26.52;17.45;;;9.20;99.90;;;;;;5250850;28;20020;-79
2022/04/05 07:59:01;;;;;;;29.20;18.45;;;9.10;99.90;;;;;;5250671;28;20026;-75
2022/04/05 08:01:32;;;;;;;27.48;17.98;;;9.30;99.90;;;;;;5268892;28;20436;-77
2022/04/05 08:04:03;;;;;;;27.85;18.33;;;9.50;99.90;;;;;;5268755;28;20103;-74
2022/04/05 08:06:34;;;;;;;34.58;21.83;;;9.50;99.90;;;;;;5268828;28;20058;-77
2022/04/05 08:09:05;;;;;;;32.20;21.40;;;9.50;99.90;;;;;;5250754;28;20586;-74
2022/04/05 08:11:36;;;;;;;32.63;21.42;;;9.60;99.90;;;;;;5250658;28;20107;-74
2022/04/05 08:14:06;;;;;;;27.30;19.63;;;9.60;99.90;;;;;;5250275;28;20387;-79
2022/04/05 08:16:38;;;;;;;24.60;16.75;;;9.50;99.90;;;;;;5250704;28;20024;-78
2022/04/05 08:19:09;;;;;;;24.70;16.58;;;9.30;99.90;;;;;;5268863;28;20028;-79
2022/04/05 08:21:40;;;;;;;22.33;14.68;;;9.40;99.90;;;;;;5268723;28;20017;-78
2022/04/05 08:24:11;;;;;;;22.80;15.88;;;9.40;99.90;;;;;;5268726;28;20529;-74
2022/04/05 08:26:42;;;;;;;20.25;14.52;;;9.40;99.90;;;;;;5268688;28;20060;-74
2022/04/05 08:29:13;;;;;;;25.13;14.40;;;9.60;99.90;;;;;;5268704;28;20024;-74
2022/04/05 08:31:44;;;;;;;24.75;15.02;;;9.50;99.90;;;;;;5268595;28;20031;-74
2022/04/05 08:34:14;;;;;;;24.30;15.30;;;9.70;99.90;;;;;;5268622;28;20028;-74
2022/04/05 08:36:45;;;;;;;22.63;15.68;;;9.70;99.90;;;;;;5268608;28;20052;-78
2022/04/05 08:39:16;;;;;;;23.48;15.55;;;9.80;99.90;;;;;;5268560;28;20463;-79
2022/04/05 08:41:48;;;;;;;22.58;14.88;;;9.70;99.90;;;;;;5268367;28;20119;-74
2022/04/05 08:44:19;;;;;;;24.15;16.33;;;9.70;99.90;;;;;;5268430;28;20467;-78
2022/04/05 08:46:51;;;;;;;26.08;17.05;;;9.70;99.90;;;;;;5268261;28;20036;-79
2022/04/05 08:49:23;;;;;;;27.10;18.08;;;9.80;99.90;;;;;;5268438;28;20418;-74
2022/04/05 08:51:54;;;;;;;26.60;16.73;;;9.90;99.90;;;;;;5268370;28;20085;-75
2022/04/05 08:54:25;;;;;;;22.23;15.68;;;9.90;99.90;;;;;;5268350;28;20028;-75
2022/04/05 08:56:56;;;;;;;21.90;15.40;;;10.00;99.90;;;;;;5268346;28;20032;-74
2022/04/05 08:59:31;;;;;;;21.77;15.77;;;10.00;99.90;;;;;;5250523;28;20024;-74
2022/04/05 09:02:01;;;;;;;20.70;14.30;;;9.90;99.90;;;;;;5250271;28;20411;-79
2022/04/05 09:04:35;;;;;;;22.13;15.23;;;10.10;99.90;;;;;;5270483;28;20093;-75
2022/04/05 09:07:29;;;;;;;20.23;14.15;;;10.10;99.90;;;;;;5272157;28;20061;-78
2022/04/05 09:10:17;;;;;;;25.27;15.60;;;10.10;99.90;;;;;;5272378;28;20104;-79
2022/04/05 09:12:51;;;;;;;20.80;14.77;;;10.20;99.90;;;;;;5272194;28;20056;-78
2022/04/05 09:15:24;;;;;;;25.33;14.40;;;10.10;99.90;;;;;;5271800;28;20044;-78
2022/04/05 09:17:55;;;;;;;35.30;18.25;;;10.10;99.90;;;;;;5271983;28;20031;-74
2022/04/05 09:20:27;;;;;;;24.02;15.77;;;10.20;99.90;;;;;;5271985;28;20082;-74
2022/04/05 09:23:01;;;;;;;20.13;14.18;;;10.00;99.90;;;;;;5271341;28;20127;-79
2022/04/05 09:25:32;;;;;;;20.08;14.80;;;10.00;99.90;;;;;;5271879;28;20040;-79
2022/04/05 09:28:05;;;;;;;16.20;11.88;;;10.00;99.90;;;;;;5271936;28;20030;-74
2022/04/05 09:30:37;;;;;;;15.80;10.95;;;10.10;99.90;;;;;;5272024;28;20432;-78
2022/04/05 09:33:12;;;;;;;17.58;12.13;;;10.30;99.90;;;;;;5271765;28;20375;-78
2022/04/05 09:35:43;;;;;;;15.38;11.45;;;10.70;99.90;;;;;;5271862;28;20103;-79
2022/04/05 09:38:16;;;;;;;17.08;14.07;;;10.80;99.90;;;;;;5271783;28;20028;-74
2022/04/05 09:40:52;;;;;;;12.60;9.43;;;10.90;99.90;;;;;;5271663;28;20107;-78
2022/04/05 09:43:23;;;;;;;13.95;10.15;;;10.90;99.90;;;;;;5271448;28;20024;-78
2022/04/05 09:46:00;;;;;;;10.18;8.30;;;11.10;99.90;;;;;;5271357;28;20085;-74
2022/04/05 09:48:36;;;;;;;8.63;7.05;;;11.10;99.90;;;;;;5271450;28;20099;-78
2022/04/05 09:51:12;;;;;;;11.63;8.07;;;10.70;99.90;;;;;;5271553;28;20101;-74
2022/04/05 09:53:45;;;;;;;10.35;6.78;;;10.70;99.90;;;;;;5271642;28;20039;-78
2022/04/05 09:56:30;;;;;;;10.40;7.60;;;11.10;99.90;;;;;;5271466;28;20649;-75
2022/04/05 09:59:04;;;;;;;10.48;7.30;;;11.30;99.90;;;;;;5271354;28;20047;-78
2022/04/05 10:01:36;;;;;;;12.35;8.02;;;11.40;99.90;;;;;;5271170;28;20510;-78
2022/04/05 10:04:25;;;;;;;12.10;7.90;;;11.10;99.90;;;;;;5271153;28;20031;-74
2022/04/05 10:06:56;;;;;;;8.85;6.05;;;11.20;99.90;;;;;;5271004;28;20491;-74
2022/04/05 10:09:28;;;;;;;3.83;3.25;;;11.50;99.90;;;;;;5271160;28;20028;-78
2022/04/05 10:11:59;;;;;;;6.25;3.25;;;11.40;99.90;;;;;;5270859;28;20392;-77
2022/04/05 10:14:30;;;;;;;4.07;2.58;;;11.00;99.90;;;;;;5270236;28;20097;-77
2022/04/05 10:17:01;;;;;;;2.80;2.20;;;10.90;99.90;;;;;;5270851;28;20045;-75
2022/04/05 10:19:33;;;;;;;4.40;2.80;;;11.00;99.90;;;;;;5270870;28;20073;-77
2022/04/05 10:22:05;;;;;;;5.22;2.30;;;11.00;99.90;;;;;;5270860;28;20565;-77
2022/04/05 10:24:36;;;;;;;6.25;3.33;;;10.80;99.90;;;;;;5270731;28;20024;-77
2022/04/05 10:27:08;;;;;;;8.15;3.88;;;11.20;99.90;;;;;;5270382;28;20062;-78
2022/04/05 10:29:40;;;;;;;4.50;2.72;;;11.50;99.90;;;;;;5270736;28;20017;-74
2022/04/05 10:32:56;;;;;;;3.55;2.72;;;11.00;99.90;;;;;;5270607;28;20054;-77
2022/04/05 10:35:30;;;;;;;4.88;2.63;;;11.10;99.90;;;;;;5165418;28;20392;-77
2022/04/05 10:38:12;;;;;;;3.88;2.70;;;11.40;99.90;;;;;;5165431;28;20422;-77
2022/04/05 10:40:47;;;;;;;5.97;2.50;;;11.50;99.90;;;;;;5238243;28;20090;-74
2022/04/05 10:43:19;;;;;;;4.22;2.30;;;11.80;99.90;;;;;;5270098;28;20041;-78
2022/04/05 10:45:50;;;;;;;4.13;2.92;;;12.00;99.90;;;;;;5270103;28;20146;-74
2022/04/05 10:48:26;;;;;;;4.53;2.35;;;12.00;99.90;;;;;;5270148;28;20115;-77
2022/04/05 10:51:00;;;;;;;4.25;2.67;;;12.20;99.90;;;;;;5270235;28;20026;-78
2022/04/05 10:56:33;;;;;;;5.78;3.05;;;12.40;99.90;;;;;;5270571;28;20101;-78
2022/04/05 10:59:05;;;;;;;4.20;2.33;;;12.30;99.90;;;;;;5270114;28;20020;-78
2022/04/05 11:01:44;;;;;;;4.05;2.55;;;12.30;99.90;;;;;;5269953;28;20024;-77
2022/04/05 11:04:18;;;;;;;3.72;2.67;;;12.00;99.90;;;;;;5270106;28;20046;-77
2022/04/05 11:06:58;;;;;;;3.10;2.22;;;12.10;99.90;;;;;;5269834;28;20069;-77
2022/04/05 11:09:39;;;;;;;4.18;2.47;;;11.80;99.90;;;;;;5269912;28;20028;-77
2022/04/05 11:12:16;;;;;;;3.33;2.28;;;11.80;99.90;;;;;;5269834;28;20039;-78
2022/04/05 11:14:52;;;;;;;6.20;2.70;;;11.90;99.90;;;;;;5269612;28;20040;-78
2022/04/05 11:17:27;;;;;;;4.88;2.20;;;12.10;99.90;;;;;;5269893;28;20464;-77
2022/04/05 11:20:00;;;;;;;3.75;2.15;;;12.10;99.90;;;;;;5251261;28;20020;-78
2022/04/05 11:22:36;;;;;;;12.93;5.95;;;12.10;99.90;;;;;;5251454;28;20024;-77
2022/04/05 11:25:25;;;;;;;4.78;2.53;;;11.70;99.90;;;;;;5269758;28;20035;-77
2022/04/05 11:28:12;;;;;;;6.75;3.15;;;11.50;99.90;;;;;;5250682;28;20060;-77
2022/04/05 11:30:54;;;;;;;5.50;3.80;;;12.20;99.90;;;;;;5269280;28;20115;-75
2022/04/05 11:33:31;;;;;;;5.55;3.20;;;12.00;99.90;;;;;;5269495;28;20024;-78
2022/04/05 11:36:10;;;;;;;5.30;2.30;;;12.70;99.90;;;;;;5269423;28;20630;-77
2022/04/05 11:38:46;;;;;;;4.68;3.00;;;12.70;99.90;;;;;;5269459;28;20137;-77
2022/04/05 11:41:23;;;;;;;4.45;2.90;;;12.70;99.90;;;;;;5269314;28;20032;-77
2022/04/05 11:44:05;;;;;;;8.50;5.25;;;12.90;99.90;;;;;;5268961;28;20027;-77
2022/04/05 11:46:37;;;;;;;4.85;3.25;;;12.80;99.90;;;;;;5269062;28;20040;-78
2022/04/05 11:49:14;;;;;;;5.07;3.33;;;12.50;99.90;;;;;;5269222;28;20030;-76
2022/04/05 11:51:51;;;;;;;6.13;3.42;;;12.50;99.90;;;;;;5269204;28;20107;-77
2022/04/05 11:54:24;;;;;;;5.65;3.60;;;12.30;99.90;;;;;;5269142;28;20062;-78
2022/04/05 11:57:03;;;;;;;4.22;2.63;;;12.10;99.90;;;;;;5269003;28;20490;-77
2022/04/05 11:59:34;;;;;;;6.10;2.70;;;11.90;99.90;;;;;;5269080;28;20036;-78
2022/04/05 12:02:05;;;;;;;4.43;2.80;;;12.10;99.90;;;;;;5268900;28;20039;-77
2022/04/05 12:04:36;;;;;;;5.30;3.92;;;12.20;99.90;;;;;;5268926;28;20020;-77
2022/04/05 12:07:06;;;;;;;5.55;3.50;;;12.20;99.90;;;;;;5268752;28;20036;-74
2022/04/05 12:09:39;;;;;;;4.35;3.17;;;12.40;99.90;;;;;;5268842;28;20024;-77
2022/04/05 12:12:10;;;;;;;4.78;2.95;;;12.40;99.90;;;;;;5250692;28;20557;-78
2022/04/05 12:14:41;;;;;;;6.93;2.67;;;12.50;99.90;;;;;;5268448;28;20048;-77
2022/04/05 12:17:12;;;;;;;3.88;2.33;;;12.50;99.90;;;;;;5268809;28;20050;-78
2022/04/05 12:19:43;;;;;;;4.60;3.08;;;12.40;99.90;;;;;;5268671;28;20089;-78
2022/04/05 12:22:16;;;;;;;9.63;4.57;;;12.40;99.90;;;;;;5268731;28;20021;-78
2022/04/05 12:24:53;;;;;;;4.35;3.40;;;12.50;99.90;;;;;;5268750;28;20025;-75
2022/04/05 12:27:27;;;;;;;8.00;5.05;;;12.20;99.90;;;;;;5268700;28;20040;-78
2022/04/05 12:30:01;;;;;;;7.65;3.65;;;12.20;99.90;;;;;;5268675;28;20077;-78
2022/04/05 12:32:38;;;;;;;6.53;4.15;;;12.20;99.90;;;;;;5268599;28;20036;-77
2022/04/05 12:35:13;;;;;;;11.43;5.15;;;12.60;99.90;;;;;;5268552;28;20039;-78
2022/04/05 12:37:44;;;;;;;7.22;4.40;;;12.50;99.90;;;;;;5269429;28;20131;-77
2022/04/05 12:40:23;;;;;;;6.40;3.72;;;12.40;99.90;;;;;;5272790;28;20023;-78
2022/04/05 12:42:53;;;;;;;7.55;4.28;;;12.20;99.90;;;;;;5272695;28;20376;-76
2022/04/05 12:45:29;;;;;;;6.93;3.67;;;12.20;99.90;;;;;;5272562;28;20089;-78
2022/04/05 12:48:16;;;;;;;5.97;3.55;;;12.10;99.90;;;;;;5272653;28;20046;-75
2022/04/05 12:50:50;;;;;;;8.13;4.47;;;12.20;99.90;;;;;;5272757;28;20176;-78
2022/04/05 12:53:28;;;;;;;12.40;8.00;;;12.20;99.90;;;;;;5272592;28;20035;-78
2022/04/05 12:56:09;;;;;;;6.68;3.70;;;12.40;99.90;;;;;;5272580;28;20032;-77
2022/04/05 12:58:46;;;;;;;4.35;2.33;;;12.20;99.90;;;;;;5272526;28;20476;-78
2022/04/05 13:01:23;;;;;;;4.63;2.78;;;12.00;99.90;;;;;;5272486;28;20052;-78
2022/04/05 13:04:03;;;;;;;4.20;2.70;;;12.30;99.90;;;;;;5272501;28;20353;-78
2022/04/05 13:06:34;;;;;;;8.02;2.78;;;11.90;99.90;;;;;;5272206;28;20040;-78
2022/04/05 13:09:15;;;;;;;4.95;3.00;;;12.20;99.90;;;;;;5272301;28;20024;-78